Time;durP1;ratioP1;P1;durP2;ratioP2;P2;SDS_P1;SDS_P2;PMS_P1;PMS_P2;Temp;Humidity;BMP_temperature;BMP_pressure;BME280_temperature;BME280_humidity;BME280_pressure;Samples;Min_cycle;Max_cycle;Signal;HPM_P1;HPM_P2
2022/11/24 00:01:15;;;;;;;18.53;13.40;;;;;;;9.25;97.36;98473.81;5094941;28;20206;-67
2022/11/24 00:03:42;;;;;;;22.27;13.33;;;;;;;9.16;96.92;98472.44;5088423;28;20285;-66
2022/11/24 00:06:11;;;;;;;16.60;13.00;;;;;;;9.16;97.85;98480.41;5077757;28;20552;-67
2022/11/24 00:08:41;;;;;;;19.50;12.03;;;;;;;9.11;96.86;98490.81;5095197;28;20268;-67
2022/11/24 00:11:10;;;;;;;14.50;12.23;;;;;;;8.95;97.78;98489.44;5095015;28;20191;-66
2022/11/24 00:13:38;;;;;;;13.20;11.80;;;;;;;8.91;98.11;98487.44;5094913;28;20245;-67
2022/11/24 00:16:10;;;;;;;16.93;11.23;;;;;;;8.94;98.72;98481.72;5094594;28;20195;-66
2022/11/24 00:18:37;;;;;;;19.67;10.33;;;;;;;8.94;99.14;98493.13;5094858;28;20318;-67
2022/11/24 00:21:04;;;;;;;13.47;10.60;;;;;;;8.93;98.21;98491.50;5094508;28;20249;-67
2022/11/24 00:23:31;;;;;;;11.50;10.10;;;;;;;8.91;98.66;98487.44;5094710;28;20187;-66
2022/11/24 00:26:05;;;;;;;11.90;10.70;;;;;;;8.97;98.00;98491.88;5095296;28;20187;-66
2022/11/24 00:28:33;;;;;;;14.17;10.67;;;;;;;9.01;97.41;98499.22;5094357;28;20704;-66
2022/11/24 00:31:00;;;;;;;12.53;10.40;;;;;;;8.98;96.39;98494.31;5094724;28;20279;-66
2022/11/24 00:33:26;;;;;;;18.60;10.87;;;;;;;8.98;95.58;98493.50;5094544;28;20195;-66
2022/11/24 00:35:57;;;;;;;10.67;9.43;;;;;;;8.95;97.07;98488.66;5094529;28;20195;-66
2022/11/24 00:38:24;;;;;;;13.40;9.57;;;;;;;8.97;97.03;98491.88;5094018;28;20627;-66
2022/11/24 00:40:51;;;;;;;12.20;9.83;;;;;;;8.95;96.58;98483.34;5094171;28;20199;-66
2022/11/24 00:43:19;;;;;;;13.53;10.10;;;;;;;8.91;96.26;98482.16;5094577;28;20187;-67
2022/11/24 00:45:46;;;;;;;11.17;8.60;;;;;;;8.89;96.54;98485.00;5094079;28;20249;-67
2022/11/24 00:48:12;;;;;;;10.27;9.37;;;;;;;8.89;96.47;98489.47;5093909;28;20655;-67
2022/11/24 00:50:39;;;;;;;10.17;9.20;;;;;;;8.85;97.04;98491.72;5094310;28;20249;-67
2022/11/24 00:53:06;;;;;;;12.97;9.27;;;;;;;8.85;97.93;98489.09;5093804;28;20225;-67
2022/11/24 00:55:33;;;;;;;11.07;8.70;;;;;;;8.87;96.74;98500.25;5094110;28;20686;-67
2022/11/24 00:57:59;;;;;;;15.93;9.63;;;;;;;8.84;96.98;98499.88;5094184;28;20625;-67
2022/11/24 01:00:27;;;;;;;12.40;9.43;;;;;;;8.78;97.26;98498.88;5094460;28;20195;-67
2022/11/24 01:02:54;;;;;;;11.47;10.13;;;;;;;8.61;97.38;98497.72;5093937;28;20260;-66
2022/11/24 01:05:21;;;;;;;14.47;10.17;;;;;;;8.56;98.96;98497.53;5093661;28;20199;-67
2022/11/24 01:07:47;;;;;;;12.57;10.80;;;;;;;8.53;99.08;98500.59;5077081;28;20623;-67
2022/11/24 01:10:14;;;;;;;15.53;10.57;;;;;;;8.55;99.57;98503.84;5073895;28;20253;-67
2022/11/24 01:12:41;;;;;;;12.57;11.33;;;;;;;8.53;99.08;98497.13;5073197;28;20612;-67
2022/11/24 01:15:08;;;;;;;15.83;12.63;;;;;;;8.49;99.62;98504.66;5073144;28;20719;-67
2022/11/24 01:17:36;;;;;;;17.57;12.77;;;;;;;8.48;99.76;98496.91;5073468;28;20227;-66
2022/11/24 01:20:03;;;;;;;17.00;13.70;;;;;;;8.43;100.00;98499.38;5074269;28;20192;-67
2022/11/24 01:22:31;;;;;;;20.33;13.93;;;;;;;8.42;100.00;98498.56;5073422;28;20191;-67
2022/11/24 01:24:57;;;;;;;16.40;13.13;;;;;;;8.46;100.00;98494.47;5072958;28;20580;-66
2022/11/24 01:27:24;;;;;;;17.57;13.33;;;;;;;8.50;99.59;98500.97;5073476;28;20253;-68
2022/11/24 01:29:51;;;;;;;16.57;13.77;;;;;;;8.55;99.44;98510.97;5079593;28;20254;-66
2022/11/24 01:32:17;;;;;;;18.70;14.40;;;;;;;8.57;99.54;98503.63;5093152;28;20195;-67
2022/11/24 01:34:46;;;;;;;17.57;13.83;;;;;;;8.56;99.70;98509.94;5093285;28;20276;-67
2022/11/24 01:37:12;;;;;;;21.67;15.37;;;;;;;8.56;99.93;98515.22;5094001;28;20608;-67
2022/11/24 01:39:39;;;;;;;16.27;13.80;;;;;;;8.57;98.73;98511.56;5093202;28;20188;-66
2022/11/24 01:42:06;;;;;;;18.40;14.80;;;;;;;8.47;99.35;98506.72;5093225;28;20248;-67
2022/11/24 01:44:33;;;;;;;19.10;14.83;;;;;;;8.53;99.35;98515.66;5093181;28;20195;-67
2022/11/24 01:47:02;;;;;;;16.93;14.23;;;;;;;8.57;100.00;98511.56;5093020;28;20671;-67
2022/11/24 01:49:36;;;;;;;22.00;15.23;;;;;;;8.58;99.62;98510.56;5092760;28;20732;-67
2022/11/24 01:52:08;;;;;;;17.67;14.77;;;;;;;8.56;99.38;98504.63;5093423;28;20227;-67
2022/11/24 01:54:39;;;;;;;24.60;15.63;;;;;;;8.60;99.88;98519.09;5092547;28;20210;-67
2022/11/24 01:57:13;;;;;;;21.97;16.57;;;;;;;8.59;99.81;98522.75;5092657;28;20226;-68
2022/11/24 01:59:40;;;;;;;19.03;15.30;;;;;;;8.56;98.21;98521.34;5092852;28;20212;-67
2022/11/24 02:02:07;;;;;;;20.03;15.60;;;;;;;8.55;97.95;98519.72;5092930;28;20191;-67
2022/11/24 02:04:36;;;;;;;22.37;15.67;;;;;;;8.52;98.46;98522.78;5093009;28;20248;-67
2022/11/24 02:07:06;;;;;;;18.33;16.23;;;;;;;8.51;99.43;98512.41;5082589;28;20196;-68
2022/11/24 02:09:39;;;;;;;19.43;16.17;;;;;;;8.53;98.82;98523.59;5072517;28;20249;-68
2022/11/24 02:12:06;;;;;;;19.23;15.27;;;;;;;8.53;99.04;98520.97;5072188;28;20238;-67
2022/11/24 02:14:35;;;;;;;19.37;15.60;;;;;;;8.49;99.77;98514.44;5072280;28;20219;-68
2022/11/24 02:17:02;;;;;;;20.00;15.57;;;;;;;8.45;99.01;98507.94;5071842;28;20225;-68
2022/11/24 02:19:41;;;;;;;20.07;16.17;;;;;;;8.41;99.59;98507.53;5072718;28;20237;-68
2022/11/24 02:22:27;;;;;;;20.27;15.73;;;;;;;8.36;100.00;98515.28;5072510;28;20245;-68
2022/11/24 02:24:58;;;;;;;25.13;15.60;;;;;;;8.35;99.28;98511.00;5072147;28;20191;-68
2022/11/24 02:27:26;;;;;;;22.50;16.27;;;;;;;8.36;98.82;98509.16;5071921;28;20352;-68
2022/11/24 02:29:53;;;;;;;21.67;16.33;;;;;;;8.36;98.48;98504.69;5078531;28;20256;-67
2022/11/24 02:32:20;;;;;;;18.90;15.60;;;;;;;8.27;99.13;98505.09;5092720;28;20195;-67
2022/11/24 02:34:47;;;;;;;17.77;14.97;;;;;;;8.20;98.33;98510.38;5091930;28;20267;-68
2022/11/24 02:37:13;;;;;;;20.03;15.23;;;;;;;8.19;99.17;98507.91;5092168;28;20187;-67
2022/11/24 02:39:40;;;;;;;20.00;15.63;;;;;;;8.22;99.35;98510.19;5092350;28;20190;-67
2022/11/24 02:42:11;;;;;;;18.90;15.07;;;;;;;8.23;99.28;98510.00;5091849;28;20217;-67
2022/11/24 02:44:43;;;;;;;21.73;16.70;;;;;;;8.18;98.69;98511.59;5091907;28;20248;-67
2022/11/24 02:47:11;;;;;;;20.53;16.90;;;;;;;8.04;99.23;98510.78;5092305;28;20238;-67
2022/11/24 02:49:38;;;;;;;22.63;16.70;;;;;;;7.98;100.00;98501.03;5091896;28;20252;-67
2022/11/24 02:52:05;;;;;;;23.10;17.87;;;;;;;7.99;100.00;98507.13;5091640;28;20674;-67
2022/11/24 02:54:32;;;;;;;20.67;16.80;;;;;;;7.97;100.00;98503.88;5091341;28;20605;-66
2022/11/24 02:56:59;;;;;;;21.43;16.07;;;;;;;8.03;99.94;98509.16;5091526;28;20187;-66
2022/11/24 02:59:26;;;;;;;23.17;17.37;;;;;;;8.05;100.00;98514.25;5095920;28;20191;-66
2022/11/24 03:01:54;;;;;;;22.83;17.50;;;;;;;7.96;100.00;98516.28;5096911;28;20195;-66
2022/11/24 03:04:21;;;;;;;25.87;18.60;;;;;;;7.85;99.45;98510.78;5095824;28;20251;-66
2022/11/24 03:06:48;;;;;;;26.90;20.57;;;;;;;7.69;100.00;98516.47;5088211;28;20192;-67
2022/11/24 03:09:14;;;;;;;27.20;17.97;;;;;;;7.67;100.00;98518.50;5075739;28;20202;-66
2022/11/24 03:11:41;;;;;;;23.50;17.43;;;;;;;7.62;100.00;98520.91;5076486;28;20195;-67
2022/11/24 03:14:08;;;;;;;24.63;18.13;;;;;;;7.54;100.00;98524.56;5075735;28;20200;-67
2022/11/24 03:16:35;;;;;;;21.50;17.10;;;;;;;7.57;100.00;98524.16;5075755;28;20318;-67
2022/11/24 03:19:03;;;;;;;24.20;17.03;;;;;;;7.62;100.00;98531.47;5075280;28;20349;-67
2022/11/24 03:21:30;;;;;;;22.67;16.90;;;;;;;7.67;100.00;98534.34;5075441;28;20199;-67
2022/11/24 03:23:57;;;;;;;20.57;16.60;;;;;;;7.64;100.00;98540.03;5075872;28;20255;-67
2022/11/24 03:26:24;;;;;;;19.90;15.60;;;;;;;7.62;100.00;98548.16;5075253;28;20225;-67
2022/11/24 03:28:53;;;;;;;20.40;16.33;;;;;;;7.53;100.00;98549.38;5075505;28;20252;-67
2022/11/24 03:31:21;;;;;;;22.87;15.93;;;;;;;7.54;100.00;98550.16;5094233;28;20284;-67
2022/11/24 03:33:47;;;;;;;19.70;15.53;;;;;;;7.42;100.00;98541.19;5095656;28;20295;-67
2022/11/24 03:36:15;;;;;;;19.53;15.13;;;;;;;7.40;100.00;98545.88;5095226;28;20226;-67
2022/11/24 03:38:42;;;;;;;17.70;14.77;;;;;;;7.37;100.00;98544.44;5095098;28;20191;-67
2022/11/24 03:41:09;;;;;;;23.83;15.70;;;;;;;7.29;100.00;98539.34;5095326;28;20187;-67
2022/11/24 03:43:36;;;;;;;18.77;13.97;;;;;;;7.31;100.00;98550.50;5095423;28;20194;-67
2022/11/24 03:46:02;;;;;;;20.10;15.13;;;;;;;7.36;100.00;98550.75;5094974;28;20587;-67
2022/11/24 03:48:29;;;;;;;24.60;15.20;;;;;;;7.37;100.00;98548.91;5095787;28;20198;-67
2022/11/24 03:50:58;;;;;;;20.97;14.77;;;;;;;7.37;100.00;98548.91;5094672;28;20628;-67
2022/11/24 03:53:28;;;;;;;26.23;15.90;;;;;;;7.42;100.00;98549.94;5094906;28;20678;-67
2022/11/24 03:55:55;;;;;;;17.27;15.40;;;;;;;7.46;100.00;98552.97;5094580;28;20233;-67
2022/11/24 03:58:22;;;;;;;21.20;14.93;;;;;;;7.48;99.53;98557.06;5094757;28;20746;-66
2022/11/24 04:00:50;;;;;;;21.50;15.90;;;;;;;7.47;99.26;98554.63;5094962;28;20191;-66
2022/11/24 04:03:18;;;;;;;21.30;14.70;;;;;;;7.45;98.98;98561.94;5095182;28;20199;-66
2022/11/24 04:05:44;;;;;;;21.60;14.40;;;;;;;7.43;99.66;98558.69;5094651;28;20195;-67
2022/11/24 04:08:11;;;;;;;25.07;16.20;;;;;;;7.45;99.79;98561.94;5075046;28;20191;-67
2022/11/24 04:10:40;;;;;;;25.27;16.50;;;;;;;7.44;98.67;98555.03;5073387;28;20195;-67
2022/11/24 04:13:11;;;;;;;32.13;17.77;;;;;;;7.39;98.32;98558.25;5074489;28;20251;-66
2022/11/24 04:15:39;;;;;;;30.73;17.27;;;;;;;7.36;99.12;98563.13;5074205;28;20234;-66
2022/11/24 04:18:06;;;;;;;34.03;19.43;;;;;;;7.32;99.79;98553.97;5074634;28;20259;-67
2022/11/24 04:20:33;;;;;;;30.13;16.03;;;;;;;7.28;99.08;98560.66;5074105;28;20192;-66
2022/11/24 04:23:00;;;;;;;29.80;16.93;;;;;;;7.23;99.75;98563.09;5074041;28;20723;-67
2022/11/24 04:25:27;;;;;;;30.80;16.50;;;;;;;7.24;99.60;98567.34;5074406;28;20201;-67
2022/11/24 04:27:56;;;;;;;21.90;14.80;;;;;;;7.18;99.06;98571.59;5092610;28;20268;-67
2022/11/24 04:30:24;;;;;;;21.50;13.73;;;;;;;7.17;98.61;98574.41;5083352;28;20304;-67
2022/11/24 04:32:51;;;;;;;19.80;13.87;;;;;;;7.10;100.00;98568.31;5074376;28;20276;-67
2022/11/24 04:35:18;;;;;;;21.47;14.67;;;;;;;7.02;100.00;98571.91;5074392;28;20273;-68
2022/11/24 04:37:45;;;;;;;17.97;14.03;;;;;;;6.99;100.00;98576.78;5074166;28;20245;-67
2022/11/24 04:40:13;;;;;;;16.60;13.87;;;;;;;7.04;100.00;98569.09;5074222;28;20192;-68
2022/11/24 04:42:40;;;;;;;20.13;13.93;;;;;;;7.10;100.00;98569.09;5073958;28;20192;-68
2022/11/24 04:45:09;;;;;;;23.80;13.67;;;;;;;7.09;100.00;98571.94;5073626;28;20259;-68
2022/11/24 04:47:35;;;;;;;23.40;14.73;;;;;;;7.17;100.00;98577.06;5074000;28;20192;-67
2022/11/24 04:50:03;;;;;;;27.03;16.97;;;;;;;7.20;100.00;98580.13;5073672;28;20191;-68
2022/11/24 04:52:30;;;;;;;19.30;14.43;;;;;;;7.27;100.00;98574.88;5073428;28;20286;-68
2022/11/24 04:54:57;;;;;;;22.13;14.30;;;;;;;7.28;100.00;98581.78;5073339;28;20737;-68
2022/11/24 04:57:25;;;;;;;22.67;13.23;;;;;;;7.32;100.00;98578.56;5073183;28;20249;-68
2022/11/24 04:59:53;;;;;;;22.37;14.77;;;;;;;7.37;100.00;98584.06;5073034;28;20195;-67
2022/11/24 05:02:22;;;;;;;26.07;15.67;;;;;;;7.35;98.85;98582.63;5071998;28;20680;-66
2022/11/24 05:04:49;;;;;;;30.17;17.57;;;;;;;7.39;98.86;98583.88;5072933;28;20221;-67
2022/11/24 05:07:16;;;;;;;34.63;20.67;;;;;;;7.41;98.67;98587.13;5084709;28;20195;-67
2022/11/24 05:12:24;;;;;;;37.23;21.10;;;;;;;7.44;97.45;98594.66;5091767;28;20217;-67
2022/11/24 05:14:51;;;;;;;37.97;19.37;;;;;;;7.47;98.04;98594.25;5093190;28;20658;-68
2022/11/24 05:17:17;;;;;;;44.67;22.07;;;;;;;7.48;98.12;98593.25;5092822;28;20582;-67
2022/11/24 05:19:45;;;;;;;43.67;21.00;;;;;;;7.45;98.41;98593.63;5092871;28;20191;-68
2022/11/24 05:22:12;;;;;;;33.73;20.13;;;;;;;7.49;99.17;98600.97;5093134;28;20195;-67
2022/11/24 05:24:39;;;;;;;43.27;20.33;;;;;;;7.50;98.76;98605.25;5093064;28;20191;-67
2022/11/24 05:27:05;;;;;;;34.10;20.30;;;;;;;7.52;98.20;98600.56;5091997;28;20260;-67
2022/11/24 05:29:32;;;;;;;43.07;21.23;;;;;;;7.54;98.04;98597.72;5089114;28;20188;-68
2022/11/24 05:31:58;;;;;;;36.40;19.63;;;;;;;7.53;97.29;98598.75;5071901;28;20200;-67
2022/11/24 05:34:26;;;;;;;40.13;21.63;;;;;;;7.52;97.34;98602.41;5074810;28;20194;-67
2022/11/24 05:36:55;;;;;;;56.27;24.50;;;;;;;7.52;98.92;98610.31;5092128;28;20272;-67
2022/11/24 05:39:21;;;;;;;94.33;39.00;;;;;;;7.57;98.60;98610.53;5088831;28;20678;-67
2022/11/24 05:41:48;;;;;;;81.30;31.53;;;;;;;7.60;98.25;98607.50;5074125;28;20268;-65
2022/11/24 05:44:15;;;;;;;96.40;31.03;;;;;;;7.67;97.76;98613.63;5072133;28;20808;-68
2022/11/24 05:46:41;;;;;;;76.20;33.33;;;;;;;7.74;99.35;98617.09;5071948;28;20194;-67
2022/11/24 05:49:08;;;;;;;109.57;40.23;;;;;;;7.88;99.33;98609.00;5089186;28;20505;-67
2022/11/24 05:51:35;;;;;;;112.87;39.77;;;;;;;7.93;98.11;98609.19;5084005;28;20191;-66
2022/11/24 05:54:03;;;;;;;100.83;44.37;;;;;;;7.99;98.13;98615.53;5091223;28;20255;-67
2022/11/24 05:56:30;;;;;;;83.03;40.40;;;;;;;8.07;98.37;98610.03;5091861;28;20335;-67
2022/11/24 05:58:56;;;;;;;68.43;30.80;;;;;;;8.17;98.94;98610.47;5090815;28;20696;-68
2022/11/24 06:01:23;;;;;;;63.20;25.00;;;;;;;8.33;98.62;98623.34;5091849;28;20724;-68
2022/11/24 06:03:50;;;;;;;39.73;21.23;;;;;;;8.47;97.79;98623.16;5091990;28;20249;-68
2022/11/24 06:06:16;;;;;;;35.80;18.03;;;;;;;8.57;95.98;98620.06;5087842;28;20192;-67
2022/11/24 06:08:43;;;;;;;30.33;19.03;;;;;;;8.67;97.26;98631.06;5071664;28;20200;-67
2022/11/24 06:11:21;;;;;;;44.33;17.90;;;;;;;8.85;97.82;98632.06;5071489;28;20269;-68
2022/11/24 06:13:48;;;;;;;41.70;18.13;;;;;;;9.11;97.13;98637.31;5071557;28;20229;-67
2022/11/24 06:16:15;;;;;;;49.37;18.13;;;;;;;9.40;95.81;98636.00;5071669;28;20263;-68
2022/11/24 06:18:41;;;;;;;41.70;17.77;;;;;;;9.54;94.50;98643.72;5071358;28;20254;-68
2022/11/24 06:21:08;;;;;;;46.60;19.83;;;;;;;9.80;93.78;98642.78;5071370;28;20633;-67
2022/11/24 06:23:35;;;;;;;26.87;17.07;;;;;;;10.05;92.72;98656.97;5071660;28;20188;-67
2022/11/24 06:26:02;;;;;;;34.03;16.97;;;;;;;10.32;91.30;98656.59;5070285;28;20200;-68
2022/11/24 06:28:30;;;;;;;29.50;14.40;;;;;;;10.56;89.24;98660.28;5071385;28;20196;-68
2022/11/24 06:31:00;;;;;;;33.27;15.00;;;;;;;10.80;87.73;98670.09;5086351;28;20202;-67
2022/11/24 06:33:29;;;;;;;46.27;16.70;;;;;;;11.08;87.78;98670.47;5090283;28;20670;-68
2022/11/24 06:36:01;;;;;;;42.57;17.50;;;;;;;11.39;86.13;98677.50;5091238;28;20624;-68
2022/11/24 06:38:28;;;;;;;34.17;15.87;;;;;;;11.69;84.34;98673.94;5091493;28;20686;-68
2022/11/24 06:40:59;;;;;;;31.40;15.60;;;;;;;12.01;83.04;98672.69;5091184;28;20218;-69
2022/11/24 06:43:26;;;;;;;28.60;16.83;;;;;;;12.25;81.64;98677.06;5091465;28;20254;-67
2022/11/24 06:45:54;;;;;;;45.17;17.17;;;;;;;12.46;81.04;98679.19;5091198;28;20191;-67
2022/11/24 06:48:21;;;;;;;34.93;17.47;;;;;;;12.75;78.20;98689.03;5091342;28;20539;-67
2022/11/24 06:50:48;;;;;;;30.40;16.80;;;;;;;13.02;77.33;98695.56;5091361;28;20210;-66
2022/11/24 06:53:15;;;;;;;33.57;16.23;;;;;;;13.25;75.89;98694.75;5091014;28;20218;-67
2022/11/24 06:55:42;;;;;;;24.63;14.37;;;;;;;13.50;75.48;98698.81;5090852;28;20302;-66
2022/11/24 06:58:09;;;;;;;23.77;12.40;;;;;;;13.72;73.85;98699.81;5091306;28;20190;-66
2022/11/24 07:00:36;;;;;;;16.83;9.10;;;;;;;13.69;70.75;98678.91;5091092;28;20311;-67
2022/11/24 07:03:04;;;;;;;20.93;8.47;;;;;;;14.09;70.81;98706.44;5091334;28;20255;-66
2022/11/24 07:05:31;;;;;;;15.80;8.10;;;;;;;14.32;69.81;98701.06;5091670;28;20275;-66
2022/11/24 07:07:59;;;;;;;15.17;7.47;;;;;;;14.52;69.20;98712.13;5072920;28;20241;-66
2022/11/24 07:10:25;;;;;;;8.97;6.53;;;;;;;14.69;68.38;98720.16;5071089;28;20245;-66
2022/11/24 07:12:52;;;;;;;10.40;7.77;;;;;;;14.80;66.77;98719.28;5071036;28;20191;-66
2022/11/24 07:15:19;;;;;;;9.03;7.43;;;;;;;14.72;66.65;98719.66;5070802;28;20192;-66
2022/11/24 07:17:45;;;;;;;15.40;7.07;;;;;;;14.66;69.51;98708.06;5070402;28;20231;-66
2022/11/24 07:20:13;;;;;;;11.47;7.93;;;;;;;14.87;68.26;98718.06;5070572;28;20188;-67
2022/11/24 07:22:40;;;;;;;14.13;7.13;;;;;;;15.17;67.36;98715.88;5070735;28;20245;-67
2022/11/24 07:25:09;;;;;;;11.03;7.17;;;;;;;15.38;65.39;98722.38;5070623;28;20192;-67
2022/11/24 07:27:36;;;;;;;8.33;5.97;;;;;;;15.53;66.26;98715.38;5070528;28;20569;-67
2022/11/24 07:30:04;;;;;;;12.93;6.27;;;;;;;15.75;65.55;98721.59;5078789;28;20199;-67
2022/11/24 07:32:31;;;;;;;18.13;8.13;;;;;;;16.04;64.85;98716.06;5091090;28;20352;-66
2022/11/24 07:34:58;;;;;;;10.80;6.10;;;;;;;16.32;62.96;98729.22;5090755;28;20286;-66
2022/11/24 07:37:26;;;;;;;10.67;6.73;;;;;;;16.38;62.32;98733.59;5090672;28;20262;-65
2022/11/24 07:39:53;;;;;;;11.73;6.63;;;;;;;16.23;62.55;98734.22;5090816;28;20230;-65
2022/11/24 07:42:20;;;;;;;9.37;6.47;;;;;;;16.13;63.46;98719.91;5090603;28;20656;-65
2022/11/24 07:44:46;;;;;;;9.60;6.60;;;;;;;16.13;63.38;98720.69;5093441;28;20624;-65
2022/11/24 07:47:13;;;;;;;6.40;5.90;;;;;;;15.88;62.97;98723.88;5094761;28;20260;-66
2022/11/24 07:49:40;;;;;;;12.87;6.57;;;;;;;15.72;64.05;98722.06;5095133;28;20200;-66
2022/11/24 07:52:08;;;;;;;7.90;6.33;;;;;;;15.54;65.40;98718.88;5094188;28;20191;-65
2022/11/24 07:54:36;;;;;;;8.20;6.00;;;;;;;15.73;65.65;98709.50;5094221;28;20191;-65
2022/11/24 07:57:03;;;;;;;6.27;5.73;;;;;;;16.03;63.82;98715.22;5094653;28;20220;-65
2022/11/24 07:59:29;;;;;;;6.87;6.13;;;;;;;16.10;62.76;98715.88;5094685;28;20195;-65
2022/11/24 08:01:56;;;;;;;14.27;8.10;;;;;;;16.12;64.56;98702.22;5093886;28;20195;-65
2022/11/24 08:04:23;;;;;;;11.73;7.23;;;;;;;16.15;64.16;98707.88;5093866;28;20249;-65
2022/11/24 08:06:49;;;;;;;7.60;6.00;;;;;;;16.19;64.48;98710.84;5085200;28;20253;-66
2022/11/24 08:09:16;;;;;;;18.90;8.27;;;;;;;16.42;64.15;98697.22;5073245;28;20192;-65
2022/11/24 08:11:44;;;;;;;12.37;6.40;;;;;;;16.89;62.10;98717.78;5073769;28;20257;-65
2022/11/24 08:14:11;;;;;;;13.83;7.13;;;;;;;16.83;62.67;98712.63;5073713;28;20261;-65
2022/11/24 08:16:38;;;;;;;7.70;5.60;;;;;;;16.80;61.97;98694.34;5073874;28;20223;-65
2022/11/24 08:19:04;;;;;;;10.10;6.37;;;;;;;16.94;62.61;98707.09;5073354;28;20730;-65
2022/11/24 08:21:31;;;;;;;6.27;5.73;;;;;;;17.10;61.65;98706.16;5074067;28;20249;-65
2022/11/24 08:23:58;;;;;;;6.60;6.00;;;;;;;16.99;63.37;98709.00;5073734;28;20196;-66
2022/11/24 08:26:25;;;;;;;12.40;6.17;;;;;;;17.07;61.54;98712.03;5074580;28;20273;-65
2022/11/24 08:28:56;;;;;;;11.77;5.73;;;;;;;17.34;62.15;98722.69;5072846;28;20199;-65
2022/11/24 08:31:23;;;;;;;15.20;5.60;;;;;;;17.96;72.16;98683.31;5088350;28;20203;-68
2022/11/24 08:33:50;;;;;;;19.20;6.07;;;;;;;18.74;67.42;98704.53;5084673;28;20257;-70
2022/11/24 08:36:18;;;;;;;8.67;5.93;;;;;;;19.26;60.41;98705.09;5081531;28;20291;-70
2022/11/24 08:38:47;;;;;;;22.10;7.03;;;;;;;19.61;57.95;98718.53;5074895;28;20180;-76
2022/11/24 08:41:15;;;;;;;6.90;6.20;;;;;;;20.02;55.75;98725.41;5088358;28;20207;-71
2022/11/24 08:43:42;;;;;;;6.50;5.23;;;;;;;20.23;53.14;98726.97;5079348;28;20194;-71
2022/11/24 08:46:12;;;;;;;4.63;4.23;;;;;;;20.03;52.93;98722.44;5073480;28;20757;-70
2022/11/24 08:48:40;;;;;;;7.70;4.20;;;;;;;20.03;54.95;98705.47;5083697;28;20608;-71
2022/11/24 08:51:08;;;;;;;11.03;5.43;;;;;;;20.31;55.06;98712.91;5094136;28;20226;-70
2022/11/24 08:53:35;;;;;;;13.67;4.70;;;;;;;20.66;55.15;98710.00;5094230;28;20195;-71
2022/11/24 08:56:03;;;;;;;10.10;5.20;;;;;;;21.02;55.75;98702.50;5093006;28;20246;-71
2022/11/24 08:58:30;;;;;;;9.40;4.60;;;;;;;21.38;52.94;98711.91;5093797;28;20187;-71
2022/11/24 09:01:04;;;;;;;10.87;5.50;;;;;;;21.52;48.02;98712.84;5094129;28;20628;-72
2022/11/24 09:03:33;;;;;;;4.20;3.90;;;;;;;21.61;49.05;98700.31;5093508;28;20237;-70
2022/11/24 09:05:59;;;;;;;11.97;4.23;;;;;;;21.89;53.03;98686.78;5093744;28;20191;-74
2022/11/24 09:08:26;;;;;;;21.47;5.50;;;;;;;21.94;48.02;98686.75;5093541;28;20717;-72
2022/11/24 09:10:53;;;;;;;10.03;4.80;;;;;;;21.93;47.46;98682.41;5093464;28;20732;-69
2022/11/24 09:13:20;;;;;;;55.10;6.90;;;;;;;21.77;47.81;98678.28;5093604;28;20188;-70
2022/11/24 09:15:46;;;;;;;37.83;6.83;;;;;;;21.64;45.88;98691.66;5085656;28;20195;-70
2022/11/24 09:18:13;;;;;;;17.80;4.73;;;;;;;21.58;46.54;98679.25;5077048;28;20240;-71
2022/11/24 09:20:41;;;;;;;12.13;4.33;;;;;;;21.55;49.28;98680.66;5069181;28;20196;-75
2022/11/24 09:23:08;;;;;;;10.07;5.10;;;;;;;22.06;60.36;98656.56;5073345;28;20252;-74
2022/11/24 09:25:35;;;;;;;26.30;5.83;;;;;;;21.76;46.76;98676.66;5079106;28;20256;-69
2022/11/24 09:28:01;;;;;;;9.37;4.40;;;;;;;21.57;47.12;98681.19;5091927;28;20245;-68
2022/11/24 09:30:28;;;;;;;4.47;3.93;;;;;;;21.27;46.51;98672.56;5078762;28;20200;-68
2022/11/24 09:32:55;;;;;;;12.97;4.30;;;;;;;21.02;49.29;98665.50;5086583;28;20200;-68
2022/11/24 09:35:22;;;;;;;12.40;4.47;;;;;;;21.19;48.34;98670.50;5093147;28;20191;-70
2022/11/24 09:37:50;;;;;;;7.93;4.23;;;;;;;21.08;47.40;98664.38;5092753;28;20222;-69
2022/11/24 09:40:17;;;;;;;14.80;5.40;;;;;;;21.03;53.35;98650.09;5092375;28;20191;-75
2022/11/24 09:42:55;;;;;;;11.63;4.40;;;;;;;21.37;51.01;98653.53;5092839;28;20192;-72
2022/11/24 09:45:32;;;;;;;10.87;4.63;;;;;;;21.63;52.25;98642.19;5093110;28;20263;-72
2022/11/24 09:48:03;;;;;;;12.93;4.90;;;;;;;21.36;46.98;98658.13;5093630;28;20251;-71
2022/11/24 09:50:33;;;;;;;4.53;3.90;;;;;;;20.89;48.50;98658.00;5092524;28;20179;-73
2022/11/24 09:53:08;;;;;;;12.80;3.80;;;;;;;20.98;54.89;98642.06;5093298;28;20245;-73
2022/11/24 09:55:42;;;;;;;6.10;2.80;;;;;;;21.03;46.76;98655.50;5092842;28;20195;-72
2022/11/24 09:58:18;;;;;;;2.70;2.50;;;;;;;20.50;45.54;98658.03;5092460;28;20775;-69
2022/11/24 10:00:46;;;;;;;6.07;2.43;;;;;;;20.35;45.65;98649.22;5090870;28;20215;-68
2022/11/24 10:03:16;;;;;;;6.30;2.63;;;;;;;20.05;46.22;98644.00;5091637;28;20233;-68
2022/11/24 10:05:45;;;;;;;5.70;3.13;;;;;;;19.52;47.95;98639.34;5089110;28;20248;-67
2022/11/24 10:08:27;;;;;;;10.03;3.77;;;;;;;19.30;48.28;98646.94;5068980;28;20192;-69
2022/11/24 10:10:58;;;;;;;2.87;2.57;;;;;;;18.69;49.77;98639.94;5067845;28;20285;-68
2022/11/24 10:13:46;;;;;;;3.43;2.63;;;;;;;18.29;51.44;98637.19;5083987;28;20264;-68
2022/11/24 10:16:35;;;;;;;3.40;2.53;;;;;;;18.30;51.88;98636.13;5085880;28;20188;-67
2022/11/24 10:19:13;;;;;;;3.13;2.67;;;;;;;18.35;51.83;98628.09;5069326;28;20716;-68
2022/11/24 10:21:58;;;;;;;5.17;2.60;;;;;;;18.26;52.11;98627.75;5068088;28;20195;-67
2022/11/24 10:24:44;;;;;;;13.00;3.47;;;;;;;18.07;52.80;98623.97;5068418;28;20192;-67
2022/11/24 10:27:15;;;;;;;9.70;3.23;;;;;;;17.91;53.35;98626.88;5069765;28;20611;-67
2022/11/24 10:29:42;;;;;;;3.10;2.90;;;;;;;17.91;53.67;98633.06;5074669;28;20520;-67
2022/11/24 10:32:17;;;;;;;5.03;2.57;;;;;;;17.86;54.10;98626.84;5090731;28;20202;-67
2022/11/24 10:34:46;;;;;;;23.20;4.10;;;;;;;18.02;54.19;98623.16;5082997;28;20267;-67
2022/11/24 10:37:16;;;;;;;12.87;2.87;;;;;;;18.27;52.13;98628.59;5070581;28;20315;-67
2022/11/24 10:39:52;;;;;;;2.00;1.80;;;;;;;18.36;50.65;98629.69;5072288;28;20205;-67
2022/11/24 10:42:23;;;;;;;4.70;2.07;;;;;;;18.43;49.91;98623.00;5071847;28;20351;-67
2022/11/24 10:45:00;;;;;;;5.20;1.83;;;;;;;18.37;50.34;98631.31;5070496;28;20710;-67
2022/11/24 10:47:27;;;;;;;1.50;1.40;;;;;;;18.66;50.29;98619.00;5068710;28;20280;-68
2022/11/24 10:49:58;;;;;;;5.73;2.07;;;;;;;18.95;48.69;98630.81;5070307;28;20270;-68
2022/11/24 10:52:26;;;;;;;9.10;2.17;;;;;;;19.05;47.67;98633.47;5068697;28;20197;-68
2022/11/24 10:54:59;;;;;;;3.07;2.30;;;;;;;19.10;48.42;98630.78;5070434;28;20242;-67
2022/11/24 10:57:31;;;;;;;3.77;2.43;;;;;;;19.30;48.21;98626.22;5070878;28;20219;-68
2022/11/24 10:59:59;;;;;;;12.43;3.77;;;;;;;19.30;48.53;98620.00;5069691;28;20188;-68
2022/11/24 11:02:30;;;;;;;13.87;3.17;;;;;;;19.45;47.96;98636.13;5071660;28;20258;-68
2022/11/24 11:04:57;;;;;;;2.47;2.10;;;;;;;19.10;48.41;98630.78;5072430;28;20250;-67
2022/11/24 11:07:25;;;;;;;5.30;1.87;;;;;;;18.99;48.47;98629.19;5071616;28;20200;-67
2022/11/24 11:10:20;;;;;;;5.17;2.17;;;;;;;18.92;49.10;98634.03;5071587;28;20193;-67
2022/11/24 11:12:47;;;;;;;2.93;2.13;;;;;;;18.43;50.11;98624.88;5072676;28;20196;-67
2022/11/24 11:15:26;;;;;;;2.33;1.90;;;;;;;18.12;50.56;98597.09;5071372;28;20199;-67
2022/11/24 11:17:57;;;;;;;1.80;1.70;;;;;;;18.38;51.28;98631.03;5071797;28;20235;-67
2022/11/24 11:20:29;;;;;;;3.80;1.70;;;;;;;18.29;51.47;98626.44;5075133;28;20180;-67
2022/11/24 11:22:57;;;;;;;3.03;2.30;;;;;;;18.15;51.42;98628.00;5075300;28;20180;-68
2022/11/24 11:25:30;;;;;;;5.37;2.80;;;;;;;18.06;51.69;98618.88;5075019;28;20660;-68
2022/11/24 11:28:17;;;;;;;3.73;2.30;;;;;;;18.12;51.97;98620.47;5075929;28;20194;-67
2022/11/24 11:30:57;;;;;;;10.87;2.47;;;;;;;18.08;51.75;98622.06;5087627;28;20278;-71
2022/11/24 11:33:27;;;;;;;4.77;2.97;;;;;;;17.94;52.51;98615.59;5086264;28;20195;-71